Time;durP1;ratioP1;P1;durP2;ratioP2;P2;SDS_P1;SDS_P2;PMS_P1;PMS_P2;Temp;Humidity;BMP_temperature;BMP_pressure;BME280_temperature;BME280_humidity;BME280_pressure;Samples;Min_cycle;Max_cycle;Signal;HPM_P1;HPM_P2
2022/12/28 00:01:27;;;;;;;4.87;2.43;;;;;;;3.69;100.00;98923.63;5014101;28;20706;-70
2022/12/28 00:03:54;;;;;;;3.90;2.23;;;;;;;3.68;100.00;98914.09;5014721;28;20191;-70
2022/12/28 00:06:23;;;;;;;3.67;2.20;;;;;;;3.77;100.00;98906.09;5014637;28;20214;-70
2022/12/28 00:08:52;;;;;;;2.63;1.80;;;;;;;3.79;100.00;98912.00;5014780;28;20209;-70
2022/12/28 00:11:21;;;;;;;2.97;2.20;;;;;;;3.74;100.00;98908.19;5014217;28;20222;-70
2022/12/28 00:13:47;;;;;;;3.13;2.20;;;;;;;3.68;100.00;98904.41;5014196;28;20206;-70
2022/12/28 00:16:28;;;;;;;3.87;2.30;;;;;;;3.73;100.00;98902.13;5014190;28;20286;-70
2022/12/28 00:18:57;;;;;;;2.90;2.40;;;;;;;3.66;100.00;98895.81;5014155;28;20211;-70
2022/12/28 00:21:23;;;;;;;3.40;2.40;;;;;;;3.64;100.00;98894.34;5013876;28;20246;-70
2022/12/28 00:23:54;;;;;;;5.57;2.80;;;;;;;3.67;100.00;98889.59;5013771;28;20213;-70
2022/12/28 00:26:21;;;;;;;5.40;2.60;;;;;;;3.59;100.00;98888.72;5014062;28;20194;-70
2022/12/28 00:28:48;;;;;;;3.60;2.50;;;;;;;3.68;100.00;98885.16;5013682;28;20239;-70
2022/12/28 00:31:15;;;;;;;4.20;2.63;;;;;;;3.67;100.00;98880.88;5014174;28;20223;-70
2022/12/28 00:33:42;;;;;;;2.67;2.40;;;;;;;3.71;100.00;98885.66;5013734;28;20218;-70
2022/12/28 00:36:12;;;;;;;5.53;2.40;;;;;;;3.75;100.00;98880.94;5013892;28;20237;-70
2022/12/28 00:38:39;;;;;;;3.33;2.40;;;;;;;3.68;100.00;98893.03;5013748;28;20226;-70
2022/12/28 00:41:06;;;;;;;2.80;2.50;;;;;;;3.69;100.00;98878.91;5013756;28;20232;-70
2022/12/28 00:43:33;;;;;;;7.53;2.60;;;;;;;3.67;100.00;98876.44;5013705;28;20665;-70
2022/12/28 00:45:59;;;;;;;4.37;2.20;;;;;;;3.74;100.00;98876.63;5014004;28;20207;-70
2022/12/28 00:48:26;;;;;;;2.40;2.10;;;;;;;3.79;100.00;98877.03;5013971;28;20217;-70
2022/12/28 00:50:52;;;;;;;3.03;2.40;;;;;;;3.64;100.00;98878.56;5013001;28;20242;-70
2022/12/28 00:53:18;;;;;;;4.63;2.77;;;;;;;3.66;100.00;98863.47;5013953;28;20572;-70
2022/12/28 00:55:45;;;;;;;4.27;2.47;;;;;;;3.64;100.00;98870.66;5013599;28;20202;-71
2022/12/28 00:58:12;;;;;;;4.83;2.30;;;;;;;3.61;100.00;98863.13;5013494;28;20229;-70
2022/12/28 01:00:38;;;;;;;4.23;2.27;;;;;;;3.65;100.00;98864.44;5013605;28;20202;-70
2022/12/28 01:03:05;;;;;;;4.27;2.30;;;;;;;3.62;100.00;98852.41;5013564;28;20573;-70
2022/12/28 01:05:31;;;;;;;5.40;2.77;;;;;;;3.65;100.00;98857.38;5013325;28;20210;-70
2022/12/28 01:07:58;;;;;;;5.70;2.73;;;;;;;3.62;100.00;98856.88;5013449;28;20198;-70
2022/12/28 01:10:24;;;;;;;4.20;2.30;;;;;;;3.63;100.00;98848.84;5013428;28;20601;-70
2022/12/28 01:12:50;;;;;;;3.47;2.70;;;;;;;3.61;100.00;98839.44;5013353;28;20586;-70
2022/12/28 01:15:17;;;;;;;3.53;2.33;;;;;;;3.60;100.00;98822.84;5013662;28;20202;-70
2022/12/28 01:17:43;;;;;;;3.03;2.20;;;;;;;3.67;100.00;98829.09;5013468;28;20226;-70
2022/12/28 01:20:10;;;;;;;4.77;2.30;;;;;;;3.69;100.00;98834.22;5013496;28;20289;-70
2022/12/28 01:22:36;;;;;;;3.53;2.07;;;;;;;3.72;100.00;98829.47;5013385;28;20324;-70
2022/12/28 01:25:03;;;;;;;5.37;2.20;;;;;;;3.69;100.00;98821.91;5013557;28;20202;-71
2022/12/28 01:27:29;;;;;;;3.37;2.03;;;;;;;3.79;100.00;98827.06;5013295;28;20225;-70
2022/12/28 01:29:56;;;;;;;3.83;2.70;;;;;;;3.76;100.00;98824.72;5013071;28;20212;-70
2022/12/28 01:32:22;;;;;;;4.73;2.43;;;;;;;3.79;100.00;98819.97;5013349;28;20275;-71
2022/12/28 01:34:48;;;;;;;3.60;2.33;;;;;;;3.73;100.00;98820.59;5013344;28;20210;-71
2022/12/28 01:37:15;;;;;;;2.63;2.10;;;;;;;3.75;100.00;98825.72;5013372;28;20209;-70
2022/12/28 01:39:41;;;;;;;3.47;2.07;;;;;;;3.72;100.00;98815.50;5013431;28;20213;-71
2022/12/28 01:42:15;;;;;;;3.13;1.97;;;;;;;3.68;100.00;98809.75;5012801;28;20226;-71
2022/12/28 01:44:45;;;;;;;3.03;2.20;;;;;;;3.70;100.00;98807.75;5013181;28;20194;-71
2022/12/28 01:47:36;;;;;;;4.17;2.23;;;;;;;3.69;100.00;98800.03;5012840;28;20214;-71
2022/12/28 01:50:08;;;;;;;3.63;2.10;;;;;;;3.71;100.00;98805.97;5013341;28;20211;-70
2022/12/28 01:52:48;;;;;;;4.73;2.30;;;;;;;3.70;100.00;98792.00;5013021;28;20337;-71
2022/12/28 01:55:17;;;;;;;2.93;2.20;;;;;;;3.72;100.00;98784.78;5011924;28;20199;-71
2022/12/28 01:58:16;;;;;;;3.00;2.13;;;;;;;3.71;100.00;98792.81;5012722;28;20596;-71
2022/12/28 02:00:42;;;;;;;4.00;2.10;;;;;;;3.70;100.00;98775.41;5012145;28;20203;-71
2022/12/28 02:03:19;;;;;;;2.53;2.07;;;;;;;3.70;100.00;98778.03;5015004;28;20206;-71
2022/12/28 02:05:49;;;;;;;3.07;2.00;;;;;;;3.80;100.00;98768.19;5015407;28;20638;-71
2022/12/28 02:08:21;;;;;;;3.43;2.20;;;;;;;3.82;100.00;98764.44;5016491;28;20209;-71
2022/12/28 02:10:48;;;;;;;2.37;2.00;;;;;;;3.81;100.00;98769.84;5016383;28;20212;-71
2022/12/28 02:13:16;;;;;;;3.17;2.03;;;;;;;3.86;100.00;98765.75;5015236;28;20206;-71
2022/12/28 02:15:43;;;;;;;4.43;2.10;;;;;;;3.93;100.00;98747.53;5015151;28;20217;-71
2022/12/28 02:18:12;;;;;;;3.30;2.10;;;;;;;3.91;100.00;98752.13;5016375;28;20231;-71
2022/12/28 02:21:00;;;;;;;2.63;2.10;;;;;;;3.92;100.00;98751.13;5016117;28;20206;-71
2022/12/28 02:23:39;;;;;;;3.07;2.00;;;;;;;3.95;100.00;98753.44;5016516;28;20191;-71
2022/12/28 02:26:30;;;;;;;2.17;1.63;;;;;;;3.92;100.00;98751.13;5016310;28;20191;-71
2022/12/28 02:29:22;;;;;;;3.60;1.90;;;;;;;3.99;100.00;98746.88;5016125;28;20210;-71
2022/12/28 02:32:19;;;;;;;2.07;1.80;;;;;;;4.01;100.00;98743.09;5016088;28;20231;-71
2022/12/28 02:35:03;;;;;;;3.80;1.57;;;;;;;4.21;100.00;98748.91;5015306;28;20194;-71
2022/12/28 02:37:40;;;;;;;3.70;1.70;;;;;;;4.19;100.00;98743.81;5015808;28;20226;-71
2022/12/28 02:40:34;;;;;;;1.73;1.60;;;;;;;4.23;100.00;98733.75;5016111;28;20201;-71
2022/12/28 02:43:02;;;;;;;2.93;1.60;;;;;;;4.27;100.00;98738.56;5015208;28;20206;-71
2022/12/28 02:51:31;;;;;;;3.73;1.50;;;;;;;4.34;100.00;98725.56;5016011;28;20256;-71
2022/12/28 02:56:05;;;;;;;3.57;1.40;;;;;;;4.40;100.00;98723.09;4999810;28;20190;-71
2022/12/28 02:57:24;;;;;;;2.33;1.03;;;;;;;4.51;100.00;98712.22;5016162;28;20261;-71
2022/12/28 03:00:11;;;;;;;1.87;1.07;;;;;;;4.47;100.00;98707.47;5014698;28;20314;-71
2022/12/28 03:02:53;;;;;;;1.60;1.30;;;;;;;4.53;100.00;98701.53;5015518;28;20226;-71
2022/12/28 03:08:56;;;;;;;1.43;1.33;;;;;;;4.61;100.00;98667.31;5015477;28;20174;-71
2022/12/28 03:11:34;;;;;;;2.23;1.17;;;;;;;4.54;100.00;98671.59;5014201;28;20230;-71
2022/12/28 03:14:09;;;;;;;1.47;1.00;;;;;;;4.63;100.00;98674.06;5013489;28;20187;-71
2022/12/28 03:33:06;;;;;;;1.10;0.90;;;;;;;4.81;100.00;98679.97;5015341;28;20177;-71
2022/12/28 03:35:45;;;;;;;2.20;1.07;;;;;;;4.75;100.00;98677.97;5014851;28;20222;-71
2022/12/28 03:38:26;;;;;;;1.17;1.07;;;;;;;4.73;100.00;98674.69;5015091;28;20210;-71
2022/12/28 03:41:01;;;;;;;1.50;1.10;;;;;;;4.73;100.00;98676.50;5015607;28;20309;-71
2022/12/28 03:43:40;;;;;;;1.67;1.00;;;;;;;4.71;100.00;98676.66;5015302;28;20195;-71
2022/12/28 03:46:22;;;;;;;4.80;1.27;;;;;;;4.74;100.00;98671.06;5015846;28;20260;-71
2022/12/28 03:48:49;;;;;;;1.10;0.80;;;;;;;4.81;100.00;98658.03;5014974;28;20191;-71
2022/12/28 03:51:20;;;;;;;0.97;0.80;;;;;;;4.77;100.00;98651.47;5013384;28;20226;-71
2022/12/28 03:53:47;;;;;;;2.70;1.07;;;;;;;4.77;100.00;98656.75;5014698;28;20206;-71
2022/12/28 03:56:14;;;;;;;2.53;1.00;;;;;;;4.80;100.00;98651.94;5014137;28;20286;-71
2022/12/28 03:58:41;;;;;;;1.10;0.90;;;;;;;4.79;100.00;98646.88;5014404;28;20223;-71
2022/12/28 04:01:08;;;;;;;1.30;1.20;;;;;;;4.80;100.00;98635.34;5014041;28;20713;-71
2022/12/28 04:03:34;;;;;;;2.10;1.17;;;;;;;4.82;100.00;98633.34;5014146;28;20574;-71
2022/12/28 04:06:00;;;;;;;1.17;1.00;;;;;;;4.81;100.00;98635.19;5014489;28;20215;-71
2022/12/28 04:08:27;;;;;;;1.53;0.90;;;;;;;4.79;100.00;98631.06;5014393;28;20202;-71
2022/12/28 04:10:54;;;;;;;2.17;0.80;;;;;;;4.77;100.00;98630.41;5013931;28;20717;-71
2022/12/28 04:13:21;;;;;;;2.00;1.00;;;;;;;4.79;100.00;98628.44;5014117;28;20237;-71
2022/12/28 04:16:02;;;;;;;1.50;0.97;;;;;;;4.80;100.00;98619.53;5014112;28;20230;-72
2022/12/28 04:18:31;;;;;;;1.30;0.80;;;;;;;4.80;100.00;98632.72;5013960;28;20226;-71
2022/12/28 04:20:57;;;;;;;1.57;1.00;;;;;;;4.78;100.00;98626.75;5013829;28;20222;-71
2022/12/28 04:23:24;;;;;;;1.10;0.90;;;;;;;4.78;100.00;98627.59;5013902;28;20197;-71
2022/12/28 04:26:17;;;;;;;1.03;0.90;;;;;;;4.81;100.00;98614.09;5013706;28;20207;-71
2022/12/28 04:28:44;;;;;;;1.83;0.97;;;;;;;4.89;100.00;98606.16;5013213;28;20568;-71
2022/12/28 04:31:12;;;;;;;1.40;0.83;;;;;;;4.95;100.00;98604.66;5013512;28;20239;-71
2022/12/28 04:33:40;;;;;;;0.73;0.70;;;;;;;5.07;100.00;98587.50;5013790;28;20306;-71
2022/12/28 04:36:09;;;;;;;1.23;1.00;;;;;;;5.19;100.00;98586.09;5013642;28;20221;-71
2022/12/28 04:38:36;;;;;;;2.73;0.90;;;;;;;5.23;100.00;98587.41;5013887;28;20218;-71
2022/12/28 04:41:04;;;;;;;2.53;0.80;;;;;;;5.25;100.00;98588.06;5014114;28;20230;-71
2022/12/28 04:43:30;;;;;;;1.50;0.80;;;;;;;5.27;100.00;98589.53;5013791;28;20206;-71
2022/12/28 04:46:03;;;;;;;1.50;0.90;;;;;;;5.24;100.00;98589.88;5013991;28;20213;-71
2022/12/28 04:48:29;;;;;;;1.00;0.73;;;;;;;5.21;100.00;98592.03;5013558;28;20249;-71
2022/12/28 04:50:56;;;;;;;2.30;1.03;;;;;;;5.28;100.00;98595.63;5013447;28;20236;-71
2022/12/28 04:53:23;;;;;;;2.57;0.90;;;;;;;5.41;100.00;98594.06;5013671;28;20214;-71
2022/12/28 04:55:50;;;;;;;2.57;0.90;;;;;;;5.39;100.00;98595.25;5013614;28;20214;-71
2022/12/28 04:58:16;;;;;;;2.23;0.67;;;;;;;5.37;100.00;98599.84;5013627;28;20226;-71
2022/12/28 05:00:43;;;;;;;1.23;0.80;;;;;;;5.32;100.00;98592.47;5013819;28;20219;-71
2022/12/28 05:03:09;;;;;;;1.17;0.77;;;;;;;5.37;100.00;98587.50;5013488;28;20217;-71
2022/12/28 05:05:36;;;;;;;1.60;0.80;;;;;;;5.35;100.00;98589.50;5013441;28;20253;-71
2022/12/28 05:08:03;;;;;;;3.00;1.00;;;;;;;5.35;100.00;98586.88;5013411;28;20210;-71
2022/12/28 05:10:30;;;;;;;1.33;0.70;;;;;;;5.43;100.00;98586.78;5013254;28;20202;-71
2022/12/28 05:12:57;;;;;;;2.83;1.00;;;;;;;5.53;98.43;98586.59;5013109;28;20234;-71
2022/12/28 05:15:23;;;;;;;3.27;1.17;;;;;;;5.46;100.00;98578.56;5013567;28;20202;-71
2022/12/28 05:17:50;;;;;;;2.47;0.73;;;;;;;5.48;99.13;98588.94;5013368;28;20206;-71
2022/12/28 05:20:18;;;;;;;1.90;1.07;;;;;;;5.44;100.00;98585.00;5013192;28;20230;-71
2022/12/28 05:22:45;;;;;;;1.50;0.93;;;;;;;5.44;100.00;98583.19;5013150;28;20727;-71
2022/12/28 05:25:11;;;;;;;2.37;0.80;;;;;;;5.51;98.44;98580.66;5013496;28;20210;-71
2022/12/28 05:27:37;;;;;;;0.80;0.70;;;;;;;5.49;99.63;98570.31;5013296;28;20213;-71
2022/12/28 05:30:04;;;;;;;2.80;0.80;;;;;;;5.49;99.62;98582.66;5013417;28;20199;-71
2022/12/28 05:32:31;;;;;;;2.00;0.87;;;;;;;5.53;99.14;98576.88;5013334;28;20230;-71
2022/12/28 05:34:57;;;;;;;0.73;0.60;;;;;;;5.61;98.19;98586.53;5013278;28;20215;-71
2022/12/28 05:37:24;;;;;;;2.70;0.90;;;;;;;5.58;98.36;98579.81;5013702;28;20206;-71
2022/12/28 05:39:50;;;;;;;1.40;0.83;;;;;;;5.62;98.73;98577.63;5016521;28;20223;-71
2022/12/28 05:42:17;;;;;;;2.20;0.70;;;;;;;5.60;98.54;98569.88;5016601;28;20230;-71
2022/12/28 05:44:43;;;;;;;1.63;1.00;;;;;;;5.53;99.73;98574.25;5016813;28;20559;-71
2022/12/28 05:47:09;;;;;;;3.37;0.90;;;;;;;5.49;99.47;98570.31;5016787;28;20207;-71
2022/12/28 05:49:36;;;;;;;1.37;0.97;;;;;;;5.61;98.07;98574.16;5016910;28;20203;-71
2022/12/28 05:52:02;;;;;;;1.07;0.80;;;;;;;5.56;99.40;98575.69;5016724;28;20229;-71
2022/12/28 05:54:28;;;;;;;1.23;1.07;;;;;;;5.62;98.89;98577.63;5016813;28;20206;-71
2022/12/28 05:56:55;;;;;;;4.03;1.10;;;;;;;5.63;98.48;98587.19;5016623;28;20213;-71
2022/12/28 05:59:21;;;;;;;3.10;0.97;;;;;;;5.53;99.85;98582.16;5016413;28;20230;-71
2022/12/28 06:01:47;;;;;;;0.70;0.70;;;;;;;5.51;100.00;98578.00;5016433;28;20249;-71
2022/12/28 06:04:19;;;;;;;2.57;0.80;;;;;;;5.49;100.00;98575.56;5016010;28;20217;-71
2022/12/28 06:06:47;;;;;;;2.27;1.00;;;;;;;5.54;99.85;98575.88;5016484;28;20191;-71
2022/12/28 06:09:14;;;;;;;2.70;0.90;;;;;;;5.48;100.00;98565.19;5016342;28;20215;-71
2022/12/28 06:11:41;;;;;;;1.70;0.83;;;;;;;5.48;100.00;98566.00;5016470;28;20227;-71
2022/12/28 06:14:07;;;;;;;4.03;0.83;;;;;;;5.43;100.00;98564.91;5016585;28;20582;-72
2022/12/28 06:16:37;;;;;;;1.33;0.80;;;;;;;5.45;100.00;98557.63;5016458;28;20579;-72
2022/12/28 06:19:08;;;;;;;2.10;0.80;;;;;;;5.42;100.00;98558.78;5016412;28;20245;-71
2022/12/28 06:21:37;;;;;;;1.33;0.70;;;;;;;5.42;100.00;98558.00;5016178;28;20298;-72
2022/12/28 06:24:05;;;;;;;1.53;0.73;;;;;;;5.45;100.00;98553.19;5016031;28;20260;-71
2022/12/28 06:26:33;;;;;;;1.67;0.77;;;;;;;5.39;100.00;98553.84;5016443;28;20206;-71
2022/12/28 06:29:01;;;;;;;3.00;0.77;;;;;;;5.49;100.00;98553.66;5015831;28;20206;-71
2022/12/28 06:31:30;;;;;;;2.33;0.80;;;;;;;5.48;100.00;98552.00;5016108;28;20231;-71
2022/12/28 06:33:58;;;;;;;1.50;0.90;;;;;;;5.42;100.00;98558.00;5015734;28;20207;-71
2022/12/28 06:36:31;;;;;;;2.40;1.00;;;;;;;5.42;100.00;98558.00;5015655;28;20210;-71
2022/12/28 06:38:59;;;;;;;0.80;0.70;;;;;;;5.49;100.00;98553.66;5016232;28;20211;-71
2022/12/28 06:41:27;;;;;;;2.83;0.90;;;;;;;5.49;100.00;98548.38;5015852;28;20232;-71
2022/12/28 06:43:54;;;;;;;4.67;1.10;;;;;;;5.53;100.00;98553.13;5015866;28;20203;-71
2022/12/28 06:46:23;;;;;;;1.80;0.90;;;;;;;5.51;100.00;98547.19;5015869;28;20225;-71
2022/12/28 06:48:50;;;;;;;2.33;1.10;;;;;;;5.53;100.00;98554.94;5015209;28;20207;-72
2022/12/28 06:51:19;;;;;;;0.90;0.70;;;;;;;5.61;99.83;98554.91;5015599;28;20288;-71
2022/12/28 06:53:47;;;;;;;1.90;1.03;;;;;;;5.63;100.00;98555.53;5015607;28;20210;-71
2022/12/28 06:56:25;;;;;;;2.27;1.00;;;;;;;5.68;100.00;98542.63;5015504;28;20309;-71
2022/12/28 06:58:52;;;;;;;0.97;0.83;;;;;;;5.57;100.00;98550.97;5015585;28;20210;-71
2022/12/28 07:01:25;;;;;;;2.60;0.90;;;;;;;5.52;100.00;98543.56;5015666;28;20230;-71
2022/12/28 07:03:53;;;;;;;3.63;0.80;;;;;;;5.56;100.00;98546.69;5015487;28;20211;-71
2022/12/28 07:06:22;;;;;;;2.03;0.97;;;;;;;5.53;100.00;98545.22;5015168;28;20207;-72
2022/12/28 07:08:49;;;;;;;2.30;0.90;;;;;;;5.50;100.00;98537.66;5015964;28;20207;-71
2022/12/28 07:11:19;;;;;;;1.20;1.00;;;;;;;5.53;100.00;98539.13;5013751;28;20638;-71
2022/12/28 07:13:46;;;;;;;2.17;1.10;;;;;;;5.52;100.00;98532.22;5014894;28;20642;-71
2022/12/28 07:16:15;;;;;;;1.60;0.90;;;;;;;5.56;100.00;98536.94;5015210;28;20206;-71
2022/12/28 07:18:42;;;;;;;2.90;1.00;;;;;;;5.57;100.00;98532.50;5014644;28;20211;-71
2022/12/28 07:21:12;;;;;;;2.63;1.20;;;;;;;5.59;100.00;98527.84;5014768;28;20787;-71
2022/12/28 07:23:38;;;;;;;2.37;1.10;;;;;;;5.58;100.00;98536.78;5015088;28;20201;-71
2022/12/28 07:26:08;;;;;;;2.70;1.20;;;;;;;5.70;99.93;98525.63;5014787;28;20630;-71
2022/12/28 07:28:43;;;;;;;1.43;0.90;;;;;;;5.68;100.00;98524.16;5014846;28;20217;-71
2022/12/28 07:31:15;;;;;;;1.53;0.90;;;;;;;5.75;100.00;98514.56;5014803;28;20226;-71
2022/12/28 07:33:42;;;;;;;4.03;1.17;;;;;;;5.63;100.00;98508.06;5014569;28;20600;-72
2022/12/28 07:36:12;;;;;;;2.40;0.90;;;;;;;5.70;100.00;98515.06;5014525;28;20214;-71
2022/12/28 07:38:38;;;;;;;2.40;1.00;;;;;;;5.70;100.00;98509.78;5014290;28;20203;-71
2022/12/28 07:41:07;;;;;;;3.20;1.53;;;;;;;5.64;100.00;98515.78;5014331;28;20234;-71
2022/12/28 07:43:34;;;;;;;3.63;1.20;;;;;;;5.67;100.00;98515.44;5014194;28;20210;-71
2022/12/28 07:46:09;;;;;;;2.10;1.20;;;;;;;5.73;100.00;98514.72;5014327;28;20669;-71
2022/12/28 07:48:37;;;;;;;1.93;1.13;;;;;;;5.71;100.00;98515.91;5014303;28;20186;-71
2022/12/28 07:51:16;;;;;;;1.30;1.00;;;;;;;5.73;100.00;98513.91;5014511;28;20226;-71
2022/12/28 07:53:45;;;;;;;1.40;1.20;;;;;;;5.70;100.00;98522.19;5014474;28;20210;-71
2022/12/28 07:56:12;;;;;;;1.00;0.90;;;;;;;5.73;100.00;98511.25;5014405;28;20211;-71
2022/12/28 07:58:39;;;;;;;1.73;0.97;;;;;;;5.77;100.00;98515.19;5014292;28;20207;-71
2022/12/28 08:01:12;;;;;;;1.60;0.87;;;;;;;5.77;100.00;98513.38;5013902;28;20227;-71
2022/12/28 08:03:39;;;;;;;2.50;0.90;;;;;;;5.76;100.00;98514.38;5014526;28;20191;-71
2022/12/28 08:06:18;;;;;;;2.27;0.90;;;;;;;5.84;99.70;98510.88;5014263;28;20202;-71
2022/12/28 08:08:46;;;;;;;1.13;0.97;;;;;;;5.83;99.66;98510.06;5014208;28;20241;-71
2022/12/28 08:11:16;;;;;;;1.83;1.00;;;;;;;5.89;99.65;98505.91;5013986;28;20241;-71
2022/12/28 08:13:45;;;;;;;1.63;0.97;;;;;;;5.91;99.15;98495.97;5014076;28;20212;-71
2022/12/28 08:16:13;;;;;;;3.57;1.07;;;;;;;5.93;98.82;98505.34;5013974;28;20207;-71
2022/12/28 08:18:41;;;;;;;1.07;1.00;;;;;;;5.96;98.77;98505.00;5013861;28;20573;-71
2022/12/28 08:21:13;;;;;;;2.60;0.97;;;;;;;6.00;98.24;98500.16;5013837;28;20234;-71
2022/12/28 08:23:39;;;;;;;1.50;0.90;;;;;;;6.03;98.20;98487.47;5013611;28;20201;-71
2022/12/28 08:26:10;;;;;;;1.37;1.23;;;;;;;6.01;98.38;98492.06;5013915;28;20214;-71
2022/12/28 08:28:37;;;;;;;2.27;1.00;;;;;;;6.12;98.04;98488.19;5014042;28;20206;-71
2022/12/28 08:31:22;;;;;;;2.30;1.07;;;;;;;6.17;97.81;98491.09;5013853;28;20434;-71
2022/12/28 08:33:48;;;;;;;1.40;0.93;;;;;;;6.21;97.50;98492.38;5013788;28;20206;-71
2022/12/28 08:36:16;;;;;;;1.83;0.93;;;;;;;6.23;97.02;98482.44;5013663;28;20202;-71
2022/12/28 08:38:43;;;;;;;1.50;1.00;;;;;;;6.21;98.25;98482.66;5013658;28;20206;-71
2022/12/28 08:41:17;;;;;;;2.87;1.20;;;;;;;6.29;97.49;98477.25;5013393;28;20235;-71
2022/12/28 08:43:44;;;;;;;1.37;0.90;;;;;;;6.30;96.73;98478.94;5013512;28;20638;-71
2022/12/28 08:46:16;;;;;;;2.53;1.07;;;;;;;6.36;96.14;98474.72;5013919;28;20534;-72
2022/12/28 08:48:44;;;;;;;2.37;1.20;;;;;;;6.36;95.79;98474.72;5013758;28;20202;-71
2022/12/28 08:51:17;;;;;;;2.00;0.90;;;;;;;6.44;95.67;98486.03;5013795;28;20233;-71
2022/12/28 08:53:45;;;;;;;1.77;0.93;;;;;;;6.51;94.04;98483.47;5013791;28;20214;-71
2022/12/28 08:56:14;;;;;;;1.67;1.10;;;;;;;6.57;93.92;98477.47;5013340;28;20692;-72
2022/12/28 08:58:42;;;;;;;1.33;0.90;;;;;;;6.60;94.61;98475.25;5013491;28;20237;-71
2022/12/28 09:01:11;;;;;;;1.10;1.00;;;;;;;6.67;95.10;98475.34;5013500;28;20230;-71
2022/12/28 09:03:40;;;;;;;2.33;1.17;;;;;;;6.74;93.15;98479.69;5013639;28;20210;-71
2022/12/28 09:06:10;;;;;;;1.77;1.10;;;;;;;6.84;92.88;98469.66;5013501;28;20206;-72
2022/12/28 09:08:37;;;;;;;2.53;1.10;;;;;;;6.88;92.91;98470.94;5013314;28;20187;-72
2022/12/28 09:11:07;;;;;;;3.53;1.13;;;;;;;6.90;93.34;98474.22;5013507;28;20225;-71
2022/12/28 09:13:34;;;;;;;4.13;0.90;;;;;;;7.01;91.45;98475.56;5016612;28;20213;-71
2022/12/28 09:16:03;;;;;;;2.03;0.93;;;;;;;7.08;90.98;98476.44;5017614;28;20232;-72
2022/12/28 09:18:30;;;;;;;1.27;1.03;;;;;;;7.10;92.15;98477.91;5017251;28;20289;-71
2022/12/28 09:20:57;;;;;;;1.10;1.00;;;;;;;7.21;90.55;98472.13;5017116;28;20230;-71
2022/12/28 09:23:23;;;;;;;1.03;0.80;;;;;;;7.24;89.51;98474.38;5017476;28;20365;-71
2022/12/28 09:25:49;;;;;;;1.90;1.00;;;;;;;7.28;89.95;98475.66;5016964;28;20210;-72
2022/12/28 09:28:16;;;;;;;1.17;0.90;;;;;;;7.46;90.35;98456.72;5016774;28;20212;-71
2022/12/28 09:30:42;;;;;;;1.30;0.93;;;;;;;7.56;88.54;98463.31;5017166;28;20571;-72
2022/12/28 09:35:49;;;;;;;1.87;0.80;;;;;;;7.61;87.71;98460.91;4994784;28;20214;-71
2022/12/28 09:38:15;;;;;;;3.23;1.00;;;;;;;7.57;88.01;98464.97;5017084;28;20211;-71
2022/12/28 09:40:43;;;;;;;2.53;1.00;;;;;;;7.64;87.51;98457.09;5017268;28;20230;-71
2022/12/28 09:43:12;;;;;;;1.60;0.93;;;;;;;7.71;86.71;98447.38;5016699;28;20211;-71
2022/12/28 09:45:41;;;;;;;3.07;1.20;;;;;;;7.65;86.57;98450.78;5016552;28;20210;-72
2022/12/28 09:48:13;;;;;;;2.47;0.90;;;;;;;7.72;87.55;98444.53;5015367;28;20276;-71
2022/12/28 09:50:39;;;;;;;1.57;0.87;;;;;;;7.69;86.79;98449.41;5016926;28;20200;-71
2022/12/28 09:53:19;;;;;;;2.03;0.90;;;;;;;7.80;86.38;98438.28;5017467;28;20635;-71
2022/12/28 09:55:56;;;;;;;1.50;0.97;;;;;;;7.82;87.61;98442.38;5017182;28;20194;-71
2022/12/28 09:58:23;;;;;;;1.00;1.00;;;;;;;7.82;86.14;98444.19;5016112;28;20195;-74
2022/12/28 10:00:54;;;;;;;1.00;0.90;;;;;;;7.98;86.32;98447.38;5016603;28;20228;-73
2022/12/28 10:03:25;;;;;;;1.33;1.00;;;;;;;7.94;86.06;98445.31;5017041;28;20541;-74
2022/12/28 10:05:54;;;;;;;1.70;1.00;;;;;;;7.97;86.37;98432.47;5016575;28;20189;-74
2022/12/28 10:08:23;;;;;;;2.27;0.90;;;;;;;8.05;85.84;98434.19;5016536;28;20214;-73
2022/12/28 10:10:51;;;;;;;1.23;0.90;;;;;;;8.07;85.85;98424.22;5016450;28;20208;-73
2022/12/28 10:13:26;;;;;;;1.63;1.07;;;;;;;8.09;84.79;98430.13;5016670;28;20290;-74
2022/12/28 10:15:53;;;;;;;1.80;0.90;;;;;;;8.10;85.09;98426.47;5016165;28;20198;-74
2022/12/28 10:18:24;;;;;;;1.57;0.83;;;;;;;8.19;85.53;98420.03;5016455;28;20206;-74
2022/12/28 10:20:51;;;;;;;0.77;0.70;;;;;;;8.16;84.66;98423.88;5016130;28;20234;-74
2022/12/28 10:23:26;;;;;;;2.57;1.10;;;;;;;8.17;84.99;98420.22;5016089;28;20191;-74
2022/12/28 10:25:55;;;;;;;1.23;0.80;;;;;;;8.22;83.95;98419.66;5016322;28;20194;-74
2022/12/28 10:28:25;;;;;;;2.23;0.80;;;;;;;8.33;83.54;98416.47;5016202;28;20580;-74
2022/12/28 10:31:10;;;;;;;1.60;1.00;;;;;;;8.37;84.05;98404.47;5015927;28;20207;-74
2022/12/28 10:33:42;;;;;;;2.23;1.13;;;;;;;8.48;82.61;98403.91;5016330;28;20225;-74
2022/12/28 10:36:14;;;;;;;1.20;0.90;;;;;;;8.51;84.01;98392.91;5016009;28;20210;-74
2022/12/28 10:38:44;;;;;;;2.73;0.80;;;;;;;8.56;82.93;98393.94;5016044;28;20187;-74
2022/12/28 10:41:13;;;;;;;0.80;0.80;;;;;;;8.65;84.25;98390.09;5015711;28;20639;-74
2022/12/28 10:43:41;;;;;;;1.60;0.80;;;;;;;8.79;81.37;98389.13;5016285;28;20203;-74
2022/12/28 10:46:20;;;;;;;2.10;1.00;;;;;;;8.89;80.67;98380.78;5015787;28;20206;-74
2022/12/28 10:48:51;;;;;;;2.10;0.83;;;;;;;8.88;81.61;98377.31;5015822;28;20199;-74
2022/12/28 10:51:20;;;;;;;1.67;0.70;;;;;;;8.85;80.76;98379.56;5015750;28;20226;-74
2022/12/28 10:53:49;;;;;;;1.20;0.80;;;;;;;8.92;81.13;98369.81;5015560;28;20223;-74
2022/12/28 10:56:34;;;;;;;1.83;0.70;;;;;;;8.93;82.57;98376.72;5015617;28;20210;-74
2022/12/28 10:59:12;;;;;;;1.93;0.80;;;;;;;8.96;81.06;98371.84;5015481;28;20194;-74
2022/12/28 11:01:40;;;;;;;1.23;0.70;;;;;;;9.08;79.83;98369.41;5015412;28;20541;-74
2022/12/28 11:04:18;;;;;;;2.63;0.67;;;;;;;9.08;79.43;98362.28;5015556;28;20216;-74
2022/12/28 11:06:57;;;;;;;1.07;0.90;;;;;;;9.23;78.86;98368.19;5015161;28;20741;-74
2022/12/28 11:09:26;;;;;;;0.97;0.87;;;;;;;9.36;78.36;98357.59;5015118;28;20195;-74
2022/12/28 11:11:55;;;;;;;0.90;0.77;;;;;;;9.57;77.47;98351.28;5014622;28;20226;-74
2022/12/28 11:14:38;;;;;;;4.37;1.10;;;;;;;9.58;76.14;98352.91;5015149;28;20213;-73
2022/12/28 11:17:29;;;;;;;2.90;0.77;;;;;;;9.52;76.84;98345.75;5014843;28;20202;-74
2022/12/28 11:20:02;;;;;;;2.17;0.90;;;;;;;9.45;77.13;98348.41;5014999;28;20226;-74
2022/12/28 11:22:30;;;;;;;1.40;0.70;;;;;;;9.27;76.76;98336.78;5014843;28;20245;-74
2022/12/28 11:25:00;;;;;;;1.20;0.70;;;;;;;9.14;77.54;98340.25;5014947;28;20206;-74
2022/12/28 11:27:26;;;;;;;0.90;0.70;;;;;;;9.06;76.74;98335.13;5014708;28;20203;-73
2022/12/28 11:29:54;;;;;;;2.77;0.80;;;;;;;9.05;77.72;98325.53;5014670;28;20206;-73
2022/12/28 11:32:25;;;;;;;1.30;0.70;;;;;;;9.02;77.67;98327.78;5014612;28;20709;-73
2022/12/28 11:34:54;;;;;;;1.33;0.67;;;;;;;8.99;78.16;98334.31;5013933;28;20222;-73
2022/12/28 11:37:21;;;;;;;1.03;0.70;;;;;;;8.92;78.60;98322.88;5015065;28;20220;-73
2022/12/28 11:39:49;;;;;;;0.40;0.40;;;;;;;8.97;78.48;98317.78;5014798;28;20207;-73
2022/12/28 11:42:35;;;;;;;1.23;0.70;;;;;;;9.01;79.99;98311.06;5014590;28;20222;-74
2022/12/28 11:45:54;;;;;;;1.60;0.70;;;;;;;9.01;79.14;98318.22;5013416;28;20217;-74
2022/12/28 11:48:41;;;;;;;0.70;0.60;;;;;;;9.07;77.29;98307.59;5013431;28;20218;-73
2022/12/28 11:51:23;;;;;;;2.20;0.73;;;;;;;9.11;77.73;98302.72;5014560;28;20222;-74
2022/12/28 11:53:57;;;;;;;1.53;0.73;;;;;;;9.09;78.00;98302.09;5015038;28;20186;-74
2022/12/28 11:56:27;;;;;;;1.70;0.80;;;;;;;9.05;78.98;98299.03;5014343;28;20194;-74
2022/12/28 11:58:59;;;;;;;1.27;0.70;;;;;;;9.00;79.98;98288.22;5013269;28;20229;-74
2022/12/28 12:01:29;;;;;;;1.40;0.80;;;;;;;9.01;79.67;98291.69;5013799;28;20725;-74
2022/12/28 12:03:58;;;;;;;2.60;1.10;;;;;;;9.15;79.04;98293.31;5014318;28;20669;-74
2022/12/28 12:06:43;;;;;;;0.80;0.73;;;;;;;9.25;79.82;98291.06;5014476;28;20213;-74
2022/12/28 12:09:21;;;;;;;3.47;1.20;;;;;;;9.24;78.41;98281.50;5014453;28;20289;-73
2022/12/28 12:11:49;;;;;;;3.10;0.70;;;;;;;9.22;79.22;98286.16;5013865;28;20713;-72
2022/12/28 12:14:22;;;;;;;1.03;0.90;;;;;;;9.20;78.73;98274.97;5013678;28;20209;-72
2022/12/28 12:16:52;;;;;;;1.33;0.90;;;;;;;9.15;80.11;98270.25;5014006;28;20194;-74
2022/12/28 12:19:29;;;;;;;1.10;0.70;;;;;;;9.14;79.55;98273.13;5013695;28;20613;-74
2022/12/28 12:22:30;;;;;;;1.40;0.90;;;;;;;9.02;79.51;98272.94;5013910;28;20235;-74